createdAt,value
2022-11-21T00:00:59.208Z,8.22
2022-11-21T00:02:10.049Z,8.18
2022-11-21T00:03:12.362Z,8.18
2022-11-21T00:04:14.824Z,8.16
2022-11-21T00:05:16.598Z,8.15
2022-11-21T00:06:19.506Z,8.13
2022-11-21T00:07:21.157Z,8.08
2022-11-21T00:08:23.685Z,8.04
2022-11-21T00:09:25.297Z,8.04
2022-11-21T00:10:27.762Z,8.00
2022-11-21T00:11:29.246Z,7.97
2022-11-21T00:12:31.778Z,7.95
2022-11-21T00:13:33.269Z,7.92
2022-11-21T00:14:35.877Z,7.92
2022-11-21T00:15:39.347Z,7.91
2022-11-21T00:16:41.847Z,7.90
2022-11-21T00:17:43.362Z,7.90
2022-11-21T00:18:45.860Z,7.90
2022-11-21T00:19:47.385Z,7.88
2022-11-21T00:20:49.979Z,7.87
2022-11-21T00:21:51.486Z,7.84
2022-11-21T00:22:53.966Z,7.81
2022-11-21T00:23:55.436Z,7.80
2022-11-21T00:24:57.895Z,7.79
2022-11-21T00:25:59.447Z,7.79
2022-11-21T00:27:01.930Z,7.77
2022-11-21T00:28:03.664Z,7.78
2022-11-21T00:29:06.100Z,7.77
2022-11-21T00:30:10.041Z,7.75
2022-11-21T00:31:21.464Z,7.74
2022-11-21T00:32:23.225Z,7.76
2022-11-21T00:33:25.797Z,7.77
2022-11-21T00:34:27.654Z,7.76
2022-11-21T00:35:32.168Z,7.76
2022-11-21T00:36:33.974Z,7.75
2022-11-21T00:37:36.588Z,7.74
2022-11-21T00:38:38.147Z,7.71
2022-11-21T00:39:40.786Z,7.70
2022-11-21T00:40:42.692Z,7.67
2022-11-21T00:41:45.218Z,7.67
2022-11-21T00:42:46.725Z,7.64
2022-11-21T00:43:49.258Z,7.62
2022-11-21T00:44:50.818Z,7.59
2022-11-21T00:45:53.688Z,7.57
2022-11-21T00:46:56.637Z,7.56
2022-11-21T00:47:59.115Z,7.54
2022-11-21T00:49:00.710Z,7.53
2022-11-21T00:50:03.216Z,7.51
2022-11-21T00:51:04.689Z,7.48
2022-11-21T00:52:07.153Z,7.45
2022-11-21T00:53:08.649Z,7.43
2022-11-21T00:54:11.306Z,7.42
2022-11-21T00:55:12.794Z,7.42
2022-11-21T00:56:15.243Z,7.43
2022-11-21T00:57:16.837Z,7.44
2022-11-21T00:58:19.358Z,7.43
2022-11-21T00:59:20.843Z,7.43
2022-11-21T01:00:23.521Z,7.43
2022-11-21T01:01:25.138Z,7.42
2022-11-21T01:02:29.062Z,7.42
2022-11-21T01:03:32.365Z,7.42
2022-11-21T01:04:36.262Z,7.43
2022-11-21T01:05:37.766Z,7.45
2022-11-21T01:06:40.251Z,7.43
2022-11-21T01:07:41.801Z,7.44
2022-11-21T01:08:45.540Z,7.44
2022-11-21T01:09:47.106Z,7.45
2022-11-21T01:10:49.611Z,7.45
2022-11-21T01:11:51.221Z,7.44
2022-11-21T01:12:53.713Z,7.45
2022-11-21T01:13:55.266Z,7.43
2022-11-21T01:14:57.877Z,7.42
2022-11-21T01:16:03.696Z,7.38
2022-11-21T01:17:06.229Z,7.34
2022-11-21T01:18:10.063Z,7.32
2022-11-21T01:19:12.607Z,7.30
2022-11-21T01:20:14.123Z,7.29
2022-11-21T01:21:18.868Z,7.28
2022-11-21T01:22:20.375Z,7.29
2022-11-21T01:23:22.912Z,7.31
2022-11-21T01:24:24.496Z,7.31
2022-11-21T01:25:27.178Z,7.32
2022-11-21T01:26:30.330Z,7.32
2022-11-21T01:27:33.874Z,7.33
2022-11-21T01:28:35.648Z,7.33
2022-11-21T01:29:38.187Z,7.32
2022-11-21T01:30:39.814Z,7.32
2022-11-21T01:31:42.334Z,7.32
2022-11-21T01:32:47.388Z,7.31
2022-11-21T01:33:51.830Z,7.28
2022-11-21T01:34:53.374Z,7.26
2022-11-21T01:35:55.817Z,7.24
2022-11-21T01:36:57.410Z,7.22
2022-11-21T01:37:59.853Z,7.22
2022-11-21T01:39:03.315Z,7.23
2022-11-21T01:40:06.635Z,7.25
2022-11-21T01:41:08.729Z,7.24
2022-11-21T01:42:13.647Z,7.24
2022-11-21T01:43:16.401Z,7.22
2022-11-21T01:44:20.755Z,7.20
2022-11-21T01:45:53.094Z,7.18
2022-11-21T01:46:55.708Z,7.14
2022-11-21T01:47:57.501Z,7.11
2022-11-21T01:49:05.710Z,7.08
2022-11-21T01:50:12.813Z,7.05
2022-11-21T01:51:20.268Z,7.02
2022-11-21T01:52:27.012Z,6.99
2022-11-21T01:53:28.846Z,6.99
2022-11-21T01:54:37.575Z,6.98
2022-11-21T01:55:39.110Z,6.99
2022-11-21T01:56:45.697Z,6.99
2022-11-21T01:57:49.471Z,6.99
2022-11-21T01:58:54.607Z,7.01
2022-11-21T01:59:59.881Z,7.00
2022-11-21T02:01:03.583Z,7.01
2022-11-21T02:02:09.566Z,6.98
2022-11-21T02:03:15.906Z,6.97
2022-11-21T02:04:20.723Z,6.96
2022-11-21T02:05:25.452Z,6.96
2022-11-21T02:06:28.764Z,6.97
2022-11-21T02:07:34.868Z,6.96
2022-11-21T02:08:38.206Z,6.95
2022-11-21T02:09:44.485Z,6.94
2022-11-21T02:10:53.714Z,6.94
2022-11-21T02:12:01.003Z,6.93
2022-11-21T02:13:02.551Z,6.94
2022-11-21T02:14:05.190Z,6.95
2022-11-21T02:15:08.146Z,6.96
2022-11-21T02:16:10.751Z,6.94
2022-11-21T02:17:12.358Z,6.95
2022-11-21T02:18:14.834Z,6.95
2022-11-21T02:19:24.290Z,6.97
2022-11-21T02:20:29.008Z,6.96
2022-11-21T02:21:41.951Z,6.98
2022-11-21T02:22:53.468Z,6.99
2022-11-21T02:24:00.965Z,6.99
2022-11-21T02:25:07.999Z,7.01
2022-11-21T02:26:10.779Z,7.01
2022-11-21T02:27:13.676Z,7.02
2022-11-21T02:28:19.249Z,7.01
2022-11-21T02:29:21.979Z,7.01
2022-11-21T02:30:23.806Z,7.00
2022-11-21T02:31:26.288Z,7.01
2022-11-21T02:32:33.508Z,7.02
2022-11-21T02:33:36.239Z,7.04
2022-11-21T02:34:37.740Z,7.05
2022-11-21T02:35:40.938Z,7.07
2022-11-21T02:36:45.707Z,7.06
2022-11-21T02:37:52.760Z,7.06
2022-11-21T02:38:54.270Z,7.07
2022-11-21T02:40:00.219Z,7.08
2022-11-21T02:41:13.022Z,7.10
2022-11-21T02:42:20.951Z,7.12
2022-11-21T02:43:24.665Z,7.11
2022-11-21T02:44:32.862Z,7.11
2022-11-21T02:45:39.018Z,7.12
2022-11-21T02:46:48.954Z,7.11
2022-11-21T02:47:58.158Z,7.12
2022-11-21T02:49:07.970Z,7.12
2022-11-21T02:50:14.548Z,7.09
2022-11-21T02:51:16.194Z,7.10
2022-11-21T02:52:18.649Z,7.08
2022-11-21T02:53:20.309Z,7.07
2022-11-21T02:54:22.825Z,7.06
2022-11-21T02:55:25.129Z,7.07
2022-11-21T02:56:28.961Z,7.07
2022-11-21T02:57:30.933Z,7.08
2022-11-21T02:58:33.413Z,7.08
2022-11-21T02:59:34.896Z,7.05
2022-11-21T03:00:40.954Z,7.04
2022-11-21T03:01:42.553Z,7.02
2022-11-21T03:02:45.715Z,6.99
2022-11-21T03:03:47.294Z,6.97
2022-11-21T03:04:49.898Z,6.98
2022-11-21T03:05:51.554Z,6.99
2022-11-21T03:06:54.052Z,7.00
2022-11-21T03:07:55.570Z,7.00
2022-11-21T03:08:58.103Z,7.02
2022-11-21T03:09:59.636Z,7.04
2022-11-21T03:11:02.097Z,7.05
2022-11-21T03:12:08.466Z,7.07
2022-11-21T03:13:10.057Z,7.08
2022-11-21T03:14:12.758Z,7.09
2022-11-21T03:15:15.605Z,7.10
2022-11-21T03:16:19.160Z,7.10
2022-11-21T03:17:20.665Z,7.12
2022-11-21T03:18:23.140Z,7.12
2022-11-21T03:19:24.653Z,7.12
2022-11-21T03:20:27.184Z,7.13
2022-11-21T03:21:28.682Z,7.13
2022-11-21T03:22:31.235Z,7.13
2022-11-21T03:23:32.776Z,7.12
2022-11-21T03:24:35.622Z,7.11
2022-11-21T03:25:37.204Z,7.10
2022-11-21T03:26:39.700Z,7.09
2022-11-21T03:27:42.698Z,7.08
2022-11-21T03:28:45.213Z,7.08
2022-11-21T03:29:46.946Z,7.08
2022-11-21T03:30:49.397Z,7.07
2022-11-21T03:31:50.966Z,7.07
2022-11-21T03:32:56.404Z,7.07
2022-11-21T03:33:57.925Z,7.07
2022-11-21T03:35:00.418Z,7.04
2022-11-21T03:36:01.956Z,7.03
2022-11-21T03:37:04.831Z,7.03
2022-11-21T03:38:06.319Z,7.03
2022-11-21T03:39:09.238Z,7.03
2022-11-21T03:40:11.853Z,7.04
2022-11-21T03:41:28.283Z,7.04
2022-11-21T03:42:30.743Z,7.05
2022-11-21T03:43:33.605Z,7.06
2022-11-21T03:44:36.064Z,7.07
2022-11-21T03:45:37.686Z,7.07
2022-11-21T03:46:42.466Z,7.07
2022-11-21T03:47:43.968Z,7.07
2022-11-21T03:48:46.464Z,7.07
2022-11-21T03:49:48.975Z,7.06
2022-11-21T03:50:51.509Z,7.08
2022-11-21T03:51:52.997Z,7.08
2022-11-21T03:52:55.432Z,7.08
2022-11-21T03:53:57.349Z,7.09
2022-11-21T03:54:59.953Z,7.09
2022-11-21T03:56:01.512Z,7.08
2022-11-21T03:57:04.176Z,7.08
2022-11-21T03:58:05.854Z,7.09
2022-11-21T03:59:09.777Z,7.09
2022-11-21T04:00:13.034Z,7.09
2022-11-21T04:01:16.122Z,7.10
2022-11-21T04:02:17.636Z,7.10
2022-11-21T04:03:20.211Z,7.11
2022-11-21T04:04:21.742Z,7.12
2022-11-21T04:05:24.201Z,7.11
2022-11-21T04:06:26.150Z,7.13
2022-11-21T04:07:30.235Z,7.13
2022-11-21T04:08:32.413Z,7.11
2022-11-21T04:09:34.928Z,7.10
2022-11-21T04:10:36.414Z,7.09
2022-11-21T04:11:38.975Z,7.10
2022-11-21T04:12:40.499Z,7.09
2022-11-21T04:13:43.439Z,7.09
2022-11-21T04:14:46.293Z,7.09
2022-11-21T04:15:48.782Z,7.10
2022-11-21T04:16:50.362Z,7.11
2022-11-21T04:17:52.975Z,7.12
2022-11-21T04:18:54.541Z,7.13
2022-11-21T04:19:57.022Z,7.13
2022-11-21T04:20:59.309Z,7.13
2022-11-21T04:22:01.845Z,7.12
2022-11-21T04:23:03.536Z,7.11
2022-11-21T04:24:07.044Z,7.10
2022-11-21T04:25:08.726Z,7.11
2022-11-21T04:26:11.238Z,7.11
2022-11-21T04:27:12.845Z,7.13
2022-11-21T04:28:15.466Z,7.15
2022-11-21T04:29:17.057Z,7.15
2022-11-21T04:30:20.920Z,7.15
2022-11-21T04:31:22.421Z,7.15
2022-11-21T04:32:24.929Z,7.14
2022-11-21T04:33:26.445Z,7.15
2022-11-21T04:34:29.492Z,7.14
2022-11-21T04:35:31.309Z,7.15
2022-11-21T04:36:33.857Z,7.14
2022-11-21T04:37:35.490Z,7.12
2022-11-21T04:38:38.120Z,7.12
2022-11-21T04:39:39.631Z,7.14
2022-11-21T04:40:44.342Z,7.14
2022-11-21T04:41:45.869Z,7.15
2022-11-21T04:42:49.186Z,7.16
2022-11-21T04:43:50.696Z,7.14
2022-11-21T04:44:53.233Z,7.14
2022-11-21T04:45:56.059Z,7.12
2022-11-21T04:47:04.889Z,7.12
2022-11-21T04:48:07.178Z,7.13
2022-11-21T04:49:09.609Z,7.13
2022-11-21T04:50:12.918Z,7.12
2022-11-21T04:51:15.369Z,7.11
2022-11-21T04:52:16.908Z,7.11
2022-11-21T04:53:19.420Z,7.11
2022-11-21T04:54:21.001Z,7.12
2022-11-21T04:55:26.578Z,7.13
2022-11-21T04:56:28.215Z,7.15
2022-11-21T04:57:32.099Z,7.16
2022-11-21T04:58:33.677Z,7.17
2022-11-21T04:59:36.258Z,7.18
2022-11-21T05:00:37.793Z,7.18
2022-11-21T05:01:41.605Z,7.20
2022-11-21T05:02:43.251Z,7.21
2022-11-21T05:03:45.732Z,7.24
2022-11-21T05:04:47.385Z,7.24
2022-11-21T05:05:50.028Z,7.24
2022-11-21T05:06:51.590Z,7.25
2022-11-21T05:07:54.026Z,7.25
2022-11-21T05:08:55.543Z,7.25
2022-11-21T05:09:58.222Z,7.25
2022-11-21T05:11:18.645Z,7.24
2022-11-21T05:12:38.763Z,7.21
2022-11-21T05:13:40.299Z,7.20
2022-11-21T05:14:42.883Z,7.18
2022-11-21T05:15:45.075Z,7.18
2022-11-21T05:16:48.967Z,7.19
2022-11-21T05:17:50.495Z,7.20
2022-11-21T05:18:52.921Z,7.23
2022-11-21T05:19:54.529Z,7.23
2022-11-21T05:20:57.558Z,7.25
2022-11-21T05:21:59.070Z,7.26
2022-11-21T05:23:01.538Z,7.27
2022-11-21T05:24:04.086Z,7.27
2022-11-21T05:25:06.248Z,7.28
2022-11-21T05:26:08.763Z,7.29
2022-11-21T05:27:10.447Z,7.30
2022-11-21T05:28:13.063Z,7.31
2022-11-21T05:29:14.611Z,7.31
2022-11-21T05:30:17.381Z,7.32
2022-11-21T05:31:18.917Z,7.33
2022-11-21T05:32:22.897Z,7.34
2022-11-21T05:33:24.404Z,7.34
2022-11-21T05:34:27.390Z,7.34
2022-11-21T05:35:29.175Z,7.35
2022-11-21T05:36:32.008Z,7.36
2022-11-21T05:37:33.611Z,7.35
2022-11-21T05:38:36.231Z,7.36
2022-11-21T05:39:37.743Z,7.36
2022-11-21T05:40:40.510Z,7.38
2022-11-21T05:41:43.032Z,7.39
2022-11-21T05:43:03.578Z,7.40
2022-11-21T05:44:05.350Z,7.41
2022-11-21T05:45:09.327Z,7.42
2022-11-21T05:46:10.816Z,7.43
2022-11-21T05:47:13.276Z,7.44
2022-11-21T05:48:16.289Z,7.45
2022-11-21T05:49:18.794Z,7.45
2022-11-21T05:50:20.331Z,7.46
2022-11-21T05:51:23.467Z,7.47
2022-11-21T05:52:25.016Z,7.48
2022-11-21T05:53:27.776Z,7.48
2022-11-21T05:54:29.516Z,7.49
2022-11-21T05:55:34.653Z,7.49
2022-11-21T05:56:37.089Z,7.49
2022-11-21T05:57:38.620Z,7.49
2022-11-21T05:58:41.347Z,7.47
2022-11-21T05:59:42.846Z,7.47
2022-11-21T06:00:45.419Z,7.46
2022-11-21T06:02:05.361Z,7.46
2022-11-21T06:03:27.780Z,7.47
2022-11-21T06:04:31.735Z,7.49
2022-11-21T06:05:33.340Z,7.47
2022-11-21T06:06:36.402Z,7.48
2022-11-21T06:07:37.948Z,7.48
2022-11-21T06:08:41.969Z,7.48
2022-11-21T06:09:43.541Z,7.50
2022-11-21T06:10:46.051Z,7.50
2022-11-21T06:11:47.603Z,7.51
2022-11-21T06:12:50.185Z,7.53
2022-11-21T06:13:53.425Z,7.53
2022-11-21T06:14:54.967Z,7.54
2022-11-21T06:16:01.410Z,7.56
2022-11-21T06:17:03.034Z,7.57
2022-11-21T06:18:05.464Z,7.58
2022-11-21T06:19:07.092Z,7.58
2022-11-21T06:20:12.368Z,7.58
2022-11-21T06:21:16.087Z,7.58
2022-11-21T06:22:18.625Z,7.58
2022-11-21T06:23:21.373Z,7.59
2022-11-21T06:24:22.867Z,7.58
2022-11-21T06:25:25.561Z,7.59
2022-11-21T06:26:28.008Z,7.59
2022-11-21T06:27:30.588Z,7.60
2022-11-21T06:28:33.969Z,7.61
2022-11-21T06:29:36.684Z,7.63
2022-11-21T06:30:39.520Z,7.64
2022-11-21T06:31:41.970Z,7.65
2022-11-21T06:32:43.544Z,7.66
2022-11-21T06:33:46.897Z,7.67
2022-11-21T06:34:48.487Z,7.69
2022-11-21T06:35:52.329Z,7.70
2022-11-21T06:36:54.169Z,7.71
2022-11-21T06:37:57.674Z,7.72
2022-11-21T06:38:59.191Z,7.73
2022-11-21T06:40:01.741Z,7.72
2022-11-21T06:41:07.368Z,7.73
2022-11-21T06:42:09.908Z,7.75
2022-11-21T06:43:11.402Z,7.74
2022-11-21T06:44:14.005Z,7.75
2022-11-21T06:45:15.745Z,7.76
2022-11-21T06:46:18.702Z,7.75
2022-11-21T06:47:20.477Z,7.76
2022-11-21T06:48:22.932Z,7.77
2022-11-21T06:49:24.507Z,7.76
2022-11-21T06:50:27.017Z,7.77
2022-11-21T06:51:29.966Z,7.77
2022-11-21T06:52:33.639Z,7.77
2022-11-21T06:53:35.401Z,7.78
2022-11-21T06:54:38.129Z,7.79
2022-11-21T06:55:40.640Z,7.80
2022-11-21T06:56:42.189Z,7.80
2022-11-21T06:57:44.694Z,7.80
2022-11-21T06:58:46.219Z,7.80
2022-11-21T06:59:48.731Z,7.80
2022-11-21T07:00:51.359Z,7.81
2022-11-21T07:01:53.856Z,7.81
2022-11-21T07:03:02.926Z,7.82
2022-11-21T07:04:06.122Z,7.83
2022-11-21T07:05:08.277Z,7.84
2022-11-21T07:06:10.755Z,7.84
2022-11-21T07:07:13.756Z,7.86
2022-11-21T07:08:16.554Z,7.86
2022-11-21T07:09:32.715Z,7.86
2022-11-21T07:10:36.428Z,7.88
2022-11-21T07:11:37.913Z,7.90
2022-11-21T07:12:58.053Z,7.90
2022-11-21T07:14:03.707Z,7.92
2022-11-21T07:15:09.166Z,7.94
2022-11-21T07:16:14.710Z,7.95
2022-11-21T07:17:16.332Z,7.94
2022-11-21T07:18:18.854Z,7.96
2022-11-21T07:19:20.376Z,7.96
2022-11-21T07:20:23.317Z,7.97
2022-11-21T07:21:24.786Z,7.99
2022-11-21T07:22:28.573Z,8.00
2022-11-21T07:23:31.309Z,8.00
2022-11-21T07:24:33.848Z,8.01
2022-11-21T07:25:36.927Z,8.02
2022-11-21T07:26:39.611Z,8.04
2022-11-21T07:27:41.195Z,8.04
2022-11-21T07:28:43.976Z,8.06
2022-11-21T07:29:45.526Z,8.07
2022-11-21T07:30:48.091Z,8.07
2022-11-21T07:31:49.606Z,8.07
2022-11-21T07:32:56.359Z,8.08
2022-11-21T07:33:58.887Z,8.08
2022-11-21T07:35:00.404Z,8.08
2022-11-21T07:36:02.994Z,8.09
2022-11-21T07:37:05.453Z,8.10
2022-11-21T07:38:09.297Z,8.12
2022-11-21T07:39:10.774Z,8.12
2022-11-21T07:40:14.471Z,8.13
2022-11-21T07:41:16.014Z,8.14
2022-11-21T07:42:18.543Z,8.15
2022-11-21T07:43:20.128Z,8.16
2022-11-21T07:44:22.589Z,8.17
2022-11-21T07:45:24.104Z,8.19
2022-11-21T07:46:26.623Z,8.21
2022-11-21T07:47:29.200Z,8.21
2022-11-21T07:48:30.775Z,8.22
2022-11-21T07:49:33.455Z,8.25
2022-11-21T07:50:35.092Z,8.25
2022-11-21T07:51:37.840Z,8.27
2022-11-21T07:52:40.515Z,8.30
2022-11-21T07:53:44.427Z,8.31
2022-11-21T07:54:46.928Z,8.31
2022-11-21T07:55:48.492Z,8.33
2022-11-21T07:56:51.049Z,8.34
2022-11-21T07:58:01.024Z,8.35
2022-11-21T07:59:02.615Z,8.35
2022-11-21T08:00:05.757Z,8.37
2022-11-21T08:01:08.661Z,8.36
2022-11-21T08:02:18.854Z,8.39
2022-11-21T08:03:22.522Z,8.41
2022-11-21T08:04:25.097Z,8.41
2022-11-21T08:05:27.057Z,8.43
2022-11-21T08:06:29.526Z,8.45
2022-11-21T08:07:34.806Z,8.45
2022-11-21T08:08:37.303Z,8.45
2022-11-21T08:09:40.509Z,8.45
2022-11-21T08:10:44.630Z,8.47
2022-11-21T08:11:46.173Z,8.47
2022-11-21T08:12:48.614Z,8.49
2022-11-21T08:13:51.065Z,8.49
2022-11-21T08:14:52.608Z,8.51
2022-11-21T08:15:55.064Z,8.53
2022-11-21T08:16:56.603Z,8.53
2022-11-21T08:17:59.125Z,8.55
2022-11-21T08:19:00.753Z,8.56
2022-11-21T08:20:04.256Z,8.57
2022-11-21T08:21:05.885Z,8.56
2022-11-21T08:22:08.359Z,8.59
2022-11-21T08:23:10.754Z,8.58
2022-11-21T08:24:14.715Z,8.61
2022-11-21T08:25:18.797Z,8.62
2022-11-21T08:26:21.355Z,8.63
2022-11-21T08:27:24.350Z,8.63
2022-11-21T08:28:26.863Z,8.66
2022-11-21T08:29:28.670Z,8.67
2022-11-21T08:30:32.041Z,8.68
2022-11-21T08:31:33.552Z,8.68
2022-11-21T08:32:36.123Z,8.68
2022-11-21T08:33:37.716Z,8.68
2022-11-21T08:34:40.210Z,8.68
2022-11-21T08:35:42.150Z,8.69
2022-11-21T08:36:44.689Z,8.70
2022-11-21T08:37:47.165Z,8.71
2022-11-21T08:38:48.783Z,8.72
2022-11-21T08:39:51.257Z,8.73
2022-11-21T08:41:13.353Z,8.74
2022-11-21T08:42:18.904Z,8.74
2022-11-21T08:43:20.410Z,8.74
2022-11-21T08:44:22.894Z,8.75
2022-11-21T08:45:25.820Z,8.75
2022-11-21T08:46:28.128Z,8.75
2022-11-21T08:47:33.250Z,8.75
2022-11-21T08:48:34.920Z,8.76
2022-11-21T08:49:37.369Z,8.76
2022-11-21T08:50:39.224Z,8.76
2022-11-21T08:51:41.707Z,8.74
2022-11-21T08:52:44.536Z,8.75
2022-11-21T08:53:47.030Z,8.75
2022-11-21T08:54:49.567Z,8.75
2022-11-21T08:55:51.083Z,8.77
2022-11-21T08:56:55.164Z,8.78
2022-11-21T08:57:57.761Z,8.79
2022-11-21T08:58:59.516Z,8.80
2022-11-21T09:00:02.005Z,8.81
2022-11-21T09:01:06.238Z,8.83
2022-11-21T09:02:11.870Z,8.84
2022-11-21T09:03:15.796Z,8.84
2022-11-21T09:04:21.697Z,8.84
2022-11-21T09:05:24.542Z,8.86
2022-11-21T09:06:26.097Z,8.87
2022-11-21T09:07:28.671Z,8.87
2022-11-21T09:08:30.413Z,8.88
2022-11-21T09:09:33.822Z,8.90
2022-11-21T09:10:35.947Z,8.92
2022-11-21T09:11:38.417Z,8.93
2022-11-21T09:12:42.343Z,8.95
2022-11-21T09:14:04.791Z,8.96
2022-11-21T09:15:26.024Z,9.00
2022-11-21T09:16:46.477Z,9.02
2022-11-21T09:18:03.443Z,9.03
2022-11-21T09:19:05.877Z,9.05
2022-11-21T09:20:09.484Z,9.07
2022-11-21T09:21:14.406Z,9.09
2022-11-21T09:22:16.851Z,9.09
2022-11-21T09:23:19.337Z,9.11
2022-11-21T09:24:21.927Z,9.12
2022-11-21T09:25:23.448Z,9.14
2022-11-21T09:26:25.927Z,9.16
2022-11-21T09:27:27.675Z,9.17
2022-11-21T09:28:31.522Z,9.19
2022-11-21T09:29:33.990Z,9.22
2022-11-21T09:30:36.661Z,9.24
2022-11-21T09:31:39.347Z,9.26
2022-11-21T09:32:41.851Z,9.27
2022-11-21T09:33:44.412Z,9.27
2022-11-21T09:34:47.058Z,9.30
2022-11-21T09:35:48.564Z,9.31
2022-11-21T09:36:51.032Z,9.32
2022-11-21T09:37:52.874Z,9.32
2022-11-21T09:38:55.380Z,9.35
2022-11-21T09:39:56.925Z,9.36
2022-11-21T09:41:32.280Z,9.36
2022-11-21T09:42:54.391Z,9.37
2022-11-21T09:44:04.300Z,9.34
2022-11-21T09:45:09.990Z,9.32
2022-11-21T09:46:16.001Z,9.32
2022-11-21T09:47:22.987Z,9.31
2022-11-21T09:49:23.566Z,9.32
2022-11-21T09:50:31.995Z,9.32
2022-11-21T09:51:38.378Z,9.31
2022-11-21T09:52:47.016Z,9.30
2022-11-21T09:53:57.975Z,9.31
2022-11-21T09:55:05.587Z,9.30
2022-11-21T09:56:12.728Z,9.28
2022-11-21T09:57:17.022Z,9.27
2022-11-21T09:58:27.100Z,9.27
2022-11-21T09:59:35.560Z,9.25
2022-11-21T10:00:38.244Z,9.27
2022-11-21T10:01:40.827Z,9.29
2022-11-21T10:02:43.472Z,9.30
2022-11-21T10:03:48.261Z,9.32
2022-11-21T10:04:51.461Z,9.34
2022-11-21T10:05:57.549Z,9.36
2022-11-21T10:07:05.362Z,9.39
2022-11-21T10:08:17.155Z,9.41
2022-11-21T10:09:28.508Z,9.43
2022-11-21T10:10:46.055Z,9.46
2022-11-21T10:12:13.388Z,9.45
2022-11-21T10:13:26.451Z,9.42
2022-11-21T10:14:45.805Z,9.40
2022-11-21T10:15:59.712Z,9.39
2022-11-21T10:17:14.124Z,9.40
2022-11-21T10:18:36.912Z,9.41
2022-11-21T10:19:57.649Z,9.44
2022-11-21T10:21:07.539Z,9.46
2022-11-21T10:22:30.771Z,9.50
2022-11-21T10:23:44.714Z,9.54
2022-11-21T10:24:57.504Z,9.56
2022-11-21T10:26:15.567Z,9.56
2022-11-21T10:27:22.616Z,9.57
2022-11-21T10:28:41.828Z,9.57
2022-11-21T10:29:53.175Z,9.55
2022-11-21T10:31:00.017Z,9.56
2022-11-21T10:32:04.747Z,9.55
2022-11-21T10:33:16.024Z,9.57
2022-11-21T10:34:22.478Z,9.57
2022-11-21T10:35:27.450Z,9.57
2022-11-21T10:36:37.501Z,9.57
2022-11-21T10:37:45.658Z,9.57
2022-11-21T10:38:50.202Z,9.58
2022-11-21T10:39:55.570Z,9.61
2022-11-21T10:41:04.472Z,9.63
2022-11-21T10:42:20.255Z,9.66
2022-11-21T10:43:53.891Z,9.68
2022-11-21T10:45:19.080Z,9.69
2022-11-21T10:46:20.910Z,9.69
2022-11-21T10:47:28.307Z,9.70
2022-11-21T10:48:30.821Z,9.70
2022-11-21T10:49:34.367Z,9.70
2022-11-21T10:50:48.367Z,9.71
2022-11-21T10:51:57.582Z,9.69
2022-11-21T10:53:29.756Z,9.69
2022-11-21T10:54:34.319Z,9.69
2022-11-21T10:55:36.866Z,9.69
2022-11-21T10:56:38.790Z,9.69
2022-11-21T10:57:45.385Z,9.69
2022-11-21T10:58:50.085Z,9.69
2022-11-21T11:00:02.165Z,9.68
2022-11-21T11:01:21.577Z,9.64
2022-11-21T11:02:26.003Z,9.62
2022-11-21T11:03:30.005Z,9.60
2022-11-21T11:04:43.917Z,9.58
2022-11-21T11:05:57.222Z,9.57
2022-11-21T11:07:21.327Z,9.58
2022-11-21T11:08:23.866Z,9.60
2022-11-21T11:09:31.709Z,9.61
2022-11-21T11:10:36.144Z,9.63
2022-11-21T11:11:38.630Z,9.66
2022-11-21T11:13:02.182Z,9.66
2022-11-21T11:14:15.593Z,9.67
2022-11-21T11:15:21.708Z,9.66
2022-11-21T11:16:26.043Z,9.64
2022-11-21T11:17:29.906Z,9.63
2022-11-21T11:18:35.212Z,9.63
2022-11-21T11:19:40.311Z,9.62
2022-11-21T11:20:45.382Z,9.59
2022-11-21T11:21:49.552Z,9.57
2022-11-21T11:22:51.290Z,9.57
2022-11-21T11:23:55.446Z,9.55
2022-11-21T11:25:00.479Z,9.53
2022-11-21T11:26:03.491Z,9.52
2022-11-21T11:27:05.982Z,9.51
2022-11-21T11:28:08.118Z,9.51
2022-11-21T11:29:15.435Z,9.50
2022-11-21T11:30:21.226Z,9.50
2022-11-21T11:31:22.775Z,9.50
2022-11-21T11:32:25.491Z,9.51
2022-11-21T11:33:32.972Z,9.52
2022-11-21T11:34:41.004Z,9.52
2022-11-21T11:35:43.579Z,9.55
2022-11-21T11:37:03.931Z,9.57
2022-11-21T11:38:10.165Z,9.60
2022-11-21T11:39:21.748Z,9.61
2022-11-21T11:40:29.594Z,9.61
2022-11-21T11:42:16.442Z,9.63
2022-11-21T11:43:52.273Z,9.66
2022-11-21T11:45:33.322Z,9.67
2022-11-21T11:47:03.526Z,9.66
2022-11-21T11:48:09.893Z,9.69
2022-11-21T11:49:21.075Z,9.69
2022-11-21T11:50:26.926Z,9.70
2022-11-21T11:51:33.885Z,9.72
2022-11-21T11:52:44.179Z,9.73
2022-11-21T11:53:50.814Z,9.74
2022-11-21T11:54:59.018Z,9.76
2022-11-21T11:56:06.091Z,9.78
2022-11-21T11:57:09.648Z,9.81
2022-11-21T11:58:21.429Z,9.85
2022-11-21T11:59:29.380Z,9.90
2022-11-21T12:00:39.244Z,9.94
2022-11-21T12:01:50.140Z,9.98
2022-11-21T12:02:59.754Z,10.02
2022-11-21T12:04:07.076Z,10.05
2022-11-21T12:05:15.589Z,10.07
2022-11-21T12:06:21.938Z,10.10
2022-11-21T12:08:33.034Z,10.12
2022-11-21T12:08:58.972Z,10.13
2022-11-21T12:10:06.832Z,10.13
2022-11-21T12:11:41.805Z,10.14
2022-11-21T12:12:49.973Z,10.15
2022-11-21T12:13:55.621Z,10.16
2022-11-21T12:15:30.932Z,10.18
2022-11-21T12:16:34.999Z,10.21
2022-11-21T12:17:43.066Z,10.21
2022-11-21T12:18:54.261Z,10.20
2022-11-21T12:19:58.779Z,10.19
2022-11-21T12:21:08.096Z,10.20
2022-11-21T12:22:12.514Z,10.18
2022-11-21T12:23:15.942Z,10.19
2022-11-21T12:24:20.964Z,10.19
2022-11-21T12:25:30.013Z,10.18
2022-11-21T12:26:42.250Z,10.18
2022-11-21T12:27:50.551Z,10.17
2022-11-21T12:29:06.994Z,10.16
2022-11-21T12:30:21.787Z,10.13
2022-11-21T12:31:32.682Z,10.11
2022-11-21T12:32:56.983Z,10.08
2022-11-21T12:34:11.595Z,10.07
2022-11-21T12:35:27.025Z,10.03
2022-11-21T12:36:39.388Z,10.01
2022-11-21T12:37:48.136Z,9.99
2022-11-21T12:39:03.935Z,9.99
2022-11-21T12:40:17.857Z,9.97
2022-11-21T12:41:46.582Z,9.98
2022-11-21T12:43:04.091Z,9.95
2022-11-21T12:44:20.199Z,9.94
2022-11-21T12:45:31.585Z,9.94
2022-11-21T12:46:42.186Z,9.94
2022-11-21T12:48:32.810Z,9.94
2022-11-21T12:50:02.186Z,9.93
2022-11-21T12:52:03.401Z,9.91
2022-11-21T12:53:31.478Z,9.91
2022-11-21T12:54:53.332Z,9.89
2022-11-21T12:56:08.873Z,9.89
2022-11-21T12:57:11.880Z,9.90
2022-11-21T12:58:27.219Z,9.92
2022-11-21T12:59:31.532Z,9.93
2022-11-21T13:00:43.910Z,9.94
2022-11-21T13:01:59.827Z,9.97
2022-11-21T13:03:33.318Z,9.99
2022-11-21T13:04:41.507Z,10.01
2022-11-21T13:05:48.105Z,10.02
2022-11-21T13:06:52.405Z,10.04
2022-11-21T13:08:06.695Z,10.07
2022-11-21T13:09:14.908Z,10.08
2022-11-21T13:10:18.360Z,10.11
2022-11-21T13:11:57.268Z,10.16
2022-11-21T13:13:07.738Z,10.17
2022-11-21T13:14:18.004Z,10.21
2022-11-21T13:15:26.402Z,10.22
2022-11-21T13:16:44.859Z,10.25
2022-11-21T13:17:53.270Z,10.25
2022-11-21T13:18:54.957Z,10.26
2022-11-21T13:20:01.484Z,10.27
2022-11-21T13:21:04.148Z,10.29
2022-11-21T13:22:05.685Z,10.29
2022-11-21T13:23:38.474Z,10.30
2022-11-21T13:24:57.968Z,10.30
2022-11-21T13:26:00.466Z,10.31
2022-11-21T13:27:02.124Z,10.30
2022-11-21T13:28:24.833Z,10.31
2022-11-21T13:29:27.790Z,10.31
2022-11-21T13:30:29.520Z,10.32
2022-11-21T13:31:33.434Z,10.33
2022-11-21T13:32:38.954Z,10.35
2022-11-21T13:33:48.339Z,10.38
2022-11-21T13:34:50.909Z,10.40
2022-11-21T13:35:57.316Z,10.42
2022-11-21T13:37:00.090Z,10.43
2022-11-21T13:38:03.299Z,10.45
2022-11-21T13:39:30.938Z,10.45
2022-11-21T13:40:37.703Z,10.44
2022-11-21T13:42:20.221Z,10.43
2022-11-21T13:43:33.070Z,10.43
2022-11-21T13:44:41.313Z,10.41
2022-11-21T13:45:45.501Z,10.40
2022-11-21T13:47:00.790Z,10.39
2022-11-21T13:48:18.101Z,10.41
2022-11-21T13:49:26.415Z,10.41
2022-11-21T13:50:47.757Z,10.42
2022-11-21T13:51:54.850Z,10.43
2022-11-21T13:53:04.574Z,10.43
2022-11-21T13:54:26.901Z,10.44
2022-11-21T13:55:57.911Z,10.44
2022-11-21T13:57:13.450Z,10.42
2022-11-21T13:58:29.671Z,10.41
2022-11-21T14:00:02.116Z,10.42
2022-11-21T14:01:24.092Z,10.41
2022-11-21T14:02:44.449Z,10.41
2022-11-21T14:04:04.288Z,10.39
2022-11-21T14:05:40.227Z,10.37
2022-11-21T14:06:44.027Z,10.37
2022-11-21T14:07:48.343Z,10.36
2022-11-21T14:09:21.427Z,10.35
2022-11-21T14:10:34.100Z,10.33
2022-11-21T14:11:41.181Z,10.33
2022-11-21T14:12:49.045Z,10.30
2022-11-21T14:13:51.785Z,10.30
2022-11-21T14:15:09.401Z,10.29
2022-11-21T14:16:25.303Z,10.26
2022-11-21T14:17:44.522Z,10.24
2022-11-21T14:18:47.818Z,10.22
2022-11-21T14:19:51.344Z,10.20
2022-11-21T14:20:57.267Z,10.18
2022-11-21T14:22:01.629Z,10.17
2022-11-21T14:23:07.506Z,10.13
2022-11-21T14:24:17.174Z,10.12
2022-11-21T14:25:23.372Z,10.10
2022-11-21T14:26:26.662Z,10.09
2022-11-21T14:27:31.810Z,10.06
2022-11-21T14:28:35.928Z,10.04
2022-11-21T14:29:40.112Z,10.02
2022-11-21T14:30:44.905Z,10.01
2022-11-21T14:31:51.379Z,9.98
2022-11-21T14:32:54.723Z,9.96
2022-11-21T14:33:58.675Z,9.94
2022-11-21T14:35:11.415Z,9.94
2022-11-21T14:36:16.373Z,9.93